createdAt,value
2023-05-15T00:02:17.441Z,5.85
2023-05-15T00:04:48.344Z,6.00
2023-05-15T00:07:19.201Z,7.35
2023-05-15T00:09:52.775Z,7.68
2023-05-15T00:12:23.444Z,6.10
2023-05-15T00:14:54.302Z,4.85
2023-05-15T00:17:24.957Z,4.20
2023-05-15T00:19:57.936Z,6.30
2023-05-15T00:22:29.163Z,6.88
2023-05-15T00:25:02.610Z,4.88
2023-05-15T00:27:34.182Z,6.03
2023-05-15T00:30:09.685Z,7.18
2023-05-15T00:32:40.388Z,4.55
2023-05-15T00:35:11.787Z,7.38
2023-05-15T00:37:42.712Z,4.43
2023-05-15T00:40:24.000Z,5.72
2023-05-15T00:42:56.937Z,6.22
2023-05-15T00:45:29.684Z,6.28
2023-05-15T00:48:01.931Z,6.75
2023-05-15T00:50:36.391Z,5.50
2023-05-15T00:53:09.394Z,8.27
2023-05-15T00:55:43.966Z,5.13
2023-05-15T00:58:16.458Z,6.13
2023-05-15T01:00:50.491Z,6.65
2023-05-15T01:03:21.524Z,7.68
2023-05-15T01:05:52.957Z,5.22
2023-05-15T01:08:30.219Z,4.20
2023-05-15T01:11:06.086Z,5.70
2023-05-15T01:13:36.932Z,4.75
2023-05-15T01:16:09.991Z,6.07
2023-05-15T01:18:41.298Z,4.53
2023-05-15T01:21:38.179Z,8.30
2023-05-15T01:24:21.951Z,5.25
2023-05-15T01:27:15.442Z,4.57
2023-05-15T01:29:59.530Z,5.03
2023-05-15T01:32:38.051Z,4.35
2023-05-15T01:35:16.734Z,7.25
2023-05-15T01:37:50.447Z,5.57
2023-05-15T01:40:22.659Z,5.97
2023-05-15T01:42:59.320Z,5.43
2023-05-15T01:45:32.136Z,9.18
2023-05-15T01:48:05.439Z,6.20
2023-05-15T01:50:38.195Z,6.22
2023-05-15T01:53:11.610Z,4.40
2023-05-15T01:55:43.314Z,6.45
2023-05-15T01:58:17.775Z,6.47
2023-05-15T02:00:50.408Z,7.83
2023-05-15T02:03:22.403Z,7.43
2023-05-15T02:05:56.958Z,8.18
2023-05-15T02:08:31.369Z,7.57
2023-05-15T02:11:03.756Z,7.25
2023-05-15T02:13:38.155Z,5.47
2023-05-15T02:16:09.963Z,6.13
2023-05-15T02:18:41.731Z,5.70
2023-05-15T02:21:32.661Z,6.20
2023-05-15T02:24:03.598Z,10.18
2023-05-15T02:26:40.899Z,7.78
2023-05-15T02:29:23.351Z,9.52
2023-05-15T02:32:03.037Z,6.03
2023-05-15T02:34:41.073Z,9.68
2023-05-15T02:37:18.452Z,6.43
2023-05-15T02:39:54.117Z,6.82
2023-05-15T02:42:26.021Z,9.52
2023-05-15T02:45:01.426Z,6.95
2023-05-15T02:47:38.041Z,6.50
2023-05-15T02:50:10.493Z,8.68
2023-05-15T02:52:41.348Z,8.63
2023-05-15T02:55:13.377Z,7.20
2023-05-15T02:57:44.410Z,7.32
2023-05-15T03:00:18.954Z,6.15
2023-05-15T03:02:49.952Z,5.93
2023-05-15T03:05:20.990Z,7.85
2023-05-15T03:07:52.126Z,6.15
2023-05-15T03:10:24.572Z,7.75
2023-05-15T03:12:55.407Z,7.45
2023-05-15T03:15:28.949Z,7.25
2023-05-15T03:17:59.838Z,11.52
2023-05-15T03:20:30.642Z,7.15
2023-05-15T03:23:01.415Z,6.45
2023-05-15T03:25:32.204Z,8.07
2023-05-15T03:28:03.234Z,11.30
2023-05-15T03:30:36.749Z,11.75
2023-05-15T03:33:07.655Z,9.30
2023-05-15T03:35:38.774Z,9.93
2023-05-15T03:38:09.642Z,9.23
2023-05-15T03:40:41.927Z,7.90
2023-05-15T03:43:12.886Z,10.80
2023-05-15T03:45:47.785Z,8.77
2023-05-15T03:48:18.692Z,6.55
2023-05-15T03:50:49.918Z,5.90
2023-05-15T03:53:20.967Z,6.53
2023-05-15T03:55:51.846Z,9.80
2023-05-15T03:58:23.345Z,8.88
2023-05-15T04:00:56.929Z,8.73
2023-05-15T04:03:27.912Z,8.32
2023-05-15T04:05:58.722Z,14.57
2023-05-15T04:08:29.568Z,8.27
2023-05-15T04:11:00.446Z,7.30
2023-05-15T04:13:31.197Z,9.45
2023-05-15T04:16:04.667Z,8.10
2023-05-15T04:18:35.568Z,15.40
2023-05-15T04:21:06.825Z,11.38
2023-05-15T04:23:37.565Z,10.30
2023-05-15T04:26:08.561Z,8.18
2023-05-15T04:28:40.328Z,7.80
2023-05-15T04:31:18.130Z,8.15
2023-05-15T04:33:49.357Z,11.80
2023-05-15T04:36:23.186Z,8.35
2023-05-15T04:38:54.128Z,13.85
2023-05-15T04:41:24.916Z,9.55
2023-05-15T04:43:55.905Z,12.20
2023-05-15T04:46:29.659Z,11.02
2023-05-15T04:49:00.452Z,10.15
2023-05-15T04:51:31.348Z,8.73
2023-05-15T04:54:02.133Z,9.38
2023-05-15T04:56:32.920Z,11.45
2023-05-15T04:59:04.187Z,14.35
2023-05-15T05:01:37.779Z,16.35
2023-05-15T05:04:08.792Z,10.55
2023-05-15T05:06:39.633Z,8.13
2023-05-15T05:09:11.089Z,11.10
2023-05-15T05:11:43.941Z,11.98
2023-05-15T05:14:15.078Z,14.07
2023-05-15T05:16:48.768Z,12.40
2023-05-15T05:19:19.580Z,12.77
2023-05-15T05:21:50.367Z,12.95
2023-05-15T05:24:21.385Z,17.38
2023-05-15T05:26:52.192Z,14.88
2023-05-15T05:29:22.865Z,10.95
2023-05-15T05:31:56.887Z,9.63
2023-05-15T05:34:27.797Z,10.20
2023-05-15T05:36:58.599Z,9.63
2023-05-15T05:39:29.355Z,15.43
2023-05-15T05:42:00.172Z,7.22
2023-05-15T05:44:30.972Z,10.02
2023-05-15T05:47:04.515Z,12.30
2023-05-15T05:49:35.467Z,9.43
2023-05-15T05:52:11.090Z,8.13
2023-05-15T05:54:41.898Z,10.98
2023-05-15T05:57:12.981Z,14.07
2023-05-15T05:59:44.012Z,12.55
2023-05-15T06:02:17.571Z,12.65
2023-05-15T06:04:48.428Z,9.93
2023-05-15T06:07:19.293Z,13.05
2023-05-15T06:09:50.084Z,9.80
2023-05-15T06:12:22.961Z,6.53
2023-05-15T06:14:53.956Z,8.23
2023-05-15T06:17:27.352Z,7.95
2023-05-15T06:19:58.162Z,6.90
2023-05-15T06:22:29.021Z,13.05
2023-05-15T06:24:59.799Z,11.95
2023-05-15T06:27:30.729Z,9.88
2023-05-15T06:30:01.742Z,12.93
2023-05-15T06:35:48.521Z,6.30
2023-05-15T06:38:19.505Z,13.27
2023-05-15T06:40:50.722Z,10.63
2023-05-15T06:43:21.591Z,9.73
2023-05-15T06:45:53.038Z,9.43
2023-05-15T06:48:24.559Z,11.77
2023-05-15T06:50:58.417Z,12.75
2023-05-15T06:53:29.412Z,7.05
2023-05-15T06:56:00.328Z,16.15
2023-05-15T06:58:34.864Z,9.90
2023-05-15T07:01:09.744Z,10.18
2023-05-15T07:03:40.692Z,12.18
2023-05-15T07:06:14.534Z,9.32
2023-05-15T07:08:45.474Z,8.48
2023-05-15T07:11:16.620Z,8.93
2023-05-15T07:13:47.625Z,9.70
2023-05-15T07:16:18.732Z,8.15
2023-05-15T07:18:49.901Z,8.70
2023-05-15T07:21:26.525Z,8.93
2023-05-15T07:23:57.713Z,9.60
2023-05-15T07:26:34.739Z,12.45
2023-05-15T07:29:10.893Z,13.32
2023-05-15T07:31:45.025Z,7.63
2023-05-15T07:34:16.873Z,10.15
2023-05-15T07:36:50.996Z,8.43
2023-05-15T07:39:24.120Z,10.73
2023-05-15T07:41:55.596Z,8.70
2023-05-15T07:44:26.500Z,8.98
2023-05-15T07:46:58.728Z,8.48
2023-05-15T07:49:29.586Z,9.38
2023-05-15T07:52:04.604Z,6.72
2023-05-15T07:57:06.540Z,19.10
2023-05-15T07:59:38.108Z,8.50
2023-05-15T08:02:09.160Z,10.35
2023-05-15T08:04:40.386Z,20.02
2023-05-15T08:07:14.196Z,11.65
2023-05-15T08:09:45.564Z,9.30
2023-05-15T08:12:21.534Z,8.45
2023-05-15T08:14:53.762Z,13.02
2023-05-15T08:17:26.487Z,10.05
2023-05-15T08:19:57.418Z,9.30
2023-05-15T08:22:31.106Z,9.30
2023-05-15T08:25:04.309Z,10.60
2023-05-15T08:27:39.307Z,11.50
2023-05-15T08:30:11.981Z,10.75
2023-05-15T08:32:45.889Z,7.80
2023-05-15T08:35:17.333Z,9.63
2023-05-15T08:37:50.958Z,8.70
2023-05-15T08:40:34.400Z,11.15
2023-05-15T08:43:16.073Z,10.00
2023-05-15T08:45:47.448Z,8.35
2023-05-15T08:48:21.617Z,7.75
2023-05-15T08:50:53.966Z,14.32
2023-05-15T08:53:27.929Z,11.18
2023-05-15T08:55:59.278Z,8.57
2023-05-15T08:58:30.671Z,11.75
2023-05-15T09:01:03.409Z,10.73
2023-05-15T09:03:34.444Z,12.57
2023-05-15T09:06:06.799Z,11.07
2023-05-15T09:08:42.292Z,9.77
2023-05-15T09:11:14.492Z,9.27
2023-05-15T09:13:45.475Z,10.50
2023-05-15T09:16:16.560Z,12.98
2023-05-15T09:21:45.160Z,7.88
2023-05-15T09:24:28.921Z,10.95
2023-05-15T09:27:07.572Z,9.90
2023-05-15T09:29:40.267Z,9.80
2023-05-15T09:32:13.878Z,13.60
2023-05-15T09:34:46.932Z,10.57
2023-05-15T09:37:32.825Z,10.77
2023-05-15T09:40:17.602Z,12.68
2023-05-15T09:42:55.642Z,11.55
2023-05-15T09:45:27.725Z,12.05
2023-05-15T09:48:00.669Z,9.50
2023-05-15T09:50:38.672Z,14.88
2023-05-15T09:53:09.937Z,19.67
2023-05-15T09:55:45.542Z,15.57
2023-05-15T09:58:18.245Z,11.90
2023-05-15T10:00:51.531Z,12.38
2023-05-15T10:03:24.092Z,15.40
2023-05-15T10:06:05.131Z,12.52
2023-05-15T10:08:37.564Z,10.63
2023-05-15T10:11:11.541Z,16.88
2023-05-15T10:13:42.382Z,16.98
2023-05-15T10:16:13.722Z,12.52
2023-05-15T10:18:45.852Z,15.82
2023-05-15T10:21:19.803Z,8.70
2023-05-15T10:23:53.380Z,23.20
2023-05-15T10:26:30.363Z,14.35
2023-05-15T10:29:02.910Z,7.85
2023-05-15T10:31:34.708Z,7.20
2023-05-15T10:34:05.892Z,14.07
2023-05-15T10:36:38.335Z,11.27
2023-05-15T10:39:10.963Z,10.45
2023-05-15T10:41:44.724Z,8.10
2023-05-15T10:44:17.797Z,11.23
2023-05-15T10:46:48.836Z,12.45
2023-05-15T10:49:20.304Z,13.88
2023-05-15T10:51:51.184Z,11.38
2023-05-15T10:54:22.100Z,8.40
2023-05-15T10:56:59.361Z,8.48
2023-05-15T10:59:37.266Z,12.63
2023-05-15T11:02:24.968Z,12.60
2023-05-15T11:05:00.123Z,12.63
2023-05-15T11:07:32.149Z,9.45
2023-05-15T11:10:04.273Z,10.50
2023-05-15T11:13:02.951Z,10.88
2023-05-15T11:15:45.526Z,15.45
2023-05-15T11:18:17.041Z,9.23
2023-05-15T11:21:11.831Z,10.98
2023-05-15T11:23:44.571Z,9.30
2023-05-15T11:26:36.818Z,10.65
2023-05-15T11:29:26.566Z,11.48
2023-05-15T11:31:57.643Z,11.40
2023-05-15T11:34:36.577Z,11.88
2023-05-15T11:37:20.269Z,12.07
2023-05-15T11:39:51.320Z,9.93
2023-05-15T11:42:22.678Z,13.95
2023-05-15T11:44:56.430Z,10.70
2023-05-15T11:47:27.453Z,13.85
2023-05-15T11:49:58.413Z,16.08
2023-05-15T11:52:30.286Z,14.85
2023-05-15T11:55:03.295Z,11.88
2023-05-15T11:57:34.751Z,17.33
2023-05-15T12:00:10.584Z,12.23
2023-05-15T12:02:41.417Z,14.00
2023-05-15T12:05:13.403Z,9.48
2023-05-15T12:07:47.612Z,10.75
2023-05-15T12:10:21.907Z,11.07
2023-05-15T12:12:55.393Z,15.30
2023-05-15T12:15:30.258Z,15.10
2023-05-15T12:18:02.585Z,11.07
2023-05-15T12:20:36.767Z,16.23
2023-05-15T12:23:09.080Z,14.33
2023-05-15T12:25:40.854Z,20.27
2023-05-15T12:28:12.482Z,14.02
2023-05-15T12:30:47.212Z,17.30
2023-05-15T12:33:18.076Z,14.15
2023-05-15T12:36:00.270Z,11.00
2023-05-15T12:38:34.526Z,20.27
2023-05-15T12:41:05.582Z,14.38
2023-05-15T12:43:36.608Z,16.92
2023-05-15T12:46:10.140Z,13.35
2023-05-15T12:48:40.961Z,15.48
2023-05-15T12:51:12.253Z,10.85
2023-05-15T12:53:48.241Z,11.55
2023-05-15T12:56:21.946Z,9.93
2023-05-15T12:58:54.849Z,9.00
2023-05-15T13:01:29.012Z,11.18
2023-05-15T13:04:00.319Z,11.70
2023-05-15T13:06:45.094Z,16.50
2023-05-15T13:09:17.429Z,13.52
2023-05-15T13:11:48.335Z,10.52
2023-05-15T13:14:21.519Z,10.07
2023-05-15T13:16:55.072Z,17.38
2023-05-15T13:19:26.183Z,13.57
2023-05-15T13:21:57.226Z,12.18
2023-05-15T13:24:28.291Z,10.40
2023-05-15T13:26:59.223Z,12.13
2023-05-15T13:29:30.444Z,12.43
2023-05-15T13:32:04.127Z,14.20
2023-05-15T13:34:35.563Z,14.23
2023-05-15T13:37:06.430Z,10.65
2023-05-15T13:39:37.297Z,18.30
2023-05-15T13:42:08.426Z,10.05
2023-05-15T13:44:39.380Z,11.77
2023-05-15T13:47:13.428Z,15.75
2023-05-15T13:49:45.209Z,13.15
2023-05-15T13:52:16.046Z,13.77
2023-05-15T13:54:47.012Z,11.63
2023-05-15T13:57:17.759Z,22.02
2023-05-15T13:59:48.661Z,11.32
2023-05-15T14:02:23.908Z,16.30
2023-05-15T14:04:54.937Z,16.92
2023-05-15T14:07:26.830Z,11.52
2023-05-15T14:09:58.199Z,11.45
2023-05-15T14:12:28.988Z,11.80
2023-05-15T14:15:05.978Z,16.15
2023-05-15T14:17:41.698Z,13.43
2023-05-15T14:20:15.883Z,10.95
2023-05-15T14:22:46.925Z,19.35
2023-05-15T14:25:17.749Z,10.35
2023-05-15T14:27:48.800Z,20.33
2023-05-15T14:30:19.845Z,13.18
2023-05-15T14:32:54.091Z,15.02
2023-05-15T14:35:25.259Z,11.77
2023-05-15T14:37:56.514Z,26.80
2023-05-15T14:40:27.850Z,17.75
2023-05-15T14:42:59.015Z,11.43
2023-05-15T14:45:30.266Z,13.50
2023-05-15T14:48:04.659Z,9.70
2023-05-15T14:50:35.775Z,10.25
2023-05-15T14:53:06.794Z,14.23
2023-05-15T14:55:38.124Z,12.70
2023-05-15T14:58:11.592Z,12.52
2023-05-15T15:03:49.486Z,16.25
2023-05-15T15:06:20.415Z,11.77
2023-05-15T15:08:51.732Z,14.25
2023-05-15T15:11:22.984Z,10.48
2023-05-15T15:13:53.849Z,10.48
2023-05-15T15:16:25.776Z,9.93
2023-05-15T15:19:00.353Z,12.52
2023-05-15T15:21:32.177Z,14.82
2023-05-15T15:24:02.997Z,14.18
2023-05-15T15:26:34.059Z,11.80
2023-05-15T15:29:04.869Z,13.57
2023-05-15T15:31:36.386Z,19.20
2023-05-15T15:34:11.867Z,18.38
2023-05-15T15:36:44.035Z,15.40
2023-05-15T15:39:16.272Z,10.88
2023-05-15T15:41:48.123Z,11.13
2023-05-15T15:44:18.959Z,11.32
2023-05-15T15:46:50.129Z,12.52
2023-05-15T15:49:23.972Z,10.95
2023-05-15T15:51:55.215Z,11.98
2023-05-15T15:54:26.770Z,12.35
2023-05-15T15:56:57.825Z,12.15
2023-05-15T15:59:28.921Z,10.60
2023-05-15T16:02:01.541Z,13.30
2023-05-15T16:04:35.214Z,18.17
2023-05-15T16:07:06.573Z,15.88
2023-05-15T16:09:37.934Z,16.27
2023-05-15T16:12:10.128Z,16.15
2023-05-15T16:14:52.130Z,14.32
2023-05-15T16:17:23.472Z,15.25
2023-05-15T16:19:57.851Z,20.52
2023-05-15T16:22:28.949Z,14.93
2023-05-15T16:25:00.031Z,19.20
2023-05-15T16:27:31.463Z,10.57
2023-05-15T16:30:02.601Z,15.82
2023-05-15T16:32:38.535Z,14.85
2023-05-15T16:35:14.908Z,12.80
2023-05-15T16:37:46.138Z,16.25
2023-05-15T16:40:18.208Z,13.98
2023-05-15T16:42:50.516Z,15.77
2023-05-15T16:45:21.640Z,17.02
2023-05-15T16:47:52.944Z,16.45
2023-05-15T16:50:28.289Z,13.38
2023-05-15T16:52:59.482Z,23.50
2023-05-15T16:55:32.226Z,15.05
2023-05-15T16:58:05.700Z,16.58
2023-05-15T17:00:46.883Z,14.10
2023-05-15T17:03:24.449Z,21.00
2023-05-15T17:06:36.467Z,12.82
2023-05-15T17:09:36.244Z,13.30
2023-05-15T17:12:13.732Z,15.65
2023-05-15T17:14:45.410Z,20.08
2023-05-15T17:17:17.500Z,18.65
2023-05-15T17:19:50.894Z,22.90
2023-05-15T17:25:50.749Z,20.98
2023-05-15T17:28:24.238Z,17.40
2023-05-15T17:34:11.946Z,12.07
2023-05-15T17:36:44.774Z,14.95
2023-05-15T17:39:32.547Z,14.02
2023-05-15T17:42:08.148Z,17.52
2023-05-15T17:44:41.051Z,21.27
2023-05-15T17:47:16.457Z,17.42
2023-05-15T17:49:51.516Z,25.75
2023-05-15T17:52:23.007Z,19.50
2023-05-15T17:55:27.069Z,18.42
2023-05-15T17:58:01.289Z,16.23
2023-05-15T18:00:36.311Z,18.75
2023-05-15T18:03:11.112Z,20.23
2023-05-15T18:05:46.828Z,24.17
2023-05-15T18:08:24.535Z,24.90
2023-05-15T18:11:11.092Z,23.88
2023-05-15T18:13:52.609Z,22.70
2023-05-15T18:16:24.766Z,20.73
2023-05-15T18:18:57.274Z,17.10
2023-05-15T18:21:28.984Z,19.15
2023-05-15T18:24:00.060Z,14.07
2023-05-15T18:26:31.742Z,14.48
2023-05-15T18:29:05.821Z,12.13
2023-05-15T18:31:36.944Z,10.25
2023-05-15T18:34:17.869Z,8.68
2023-05-15T18:36:53.387Z,8.82
2023-05-15T18:39:31.506Z,11.00
2023-05-15T18:42:14.657Z,12.77
2023-05-15T18:44:51.516Z,11.68
2023-05-15T18:50:25.416Z,11.25
2023-05-15T18:52:56.988Z,9.88
2023-05-15T18:55:30.498Z,9.07
2023-05-15T18:58:18.874Z,7.30
2023-05-15T19:00:52.809Z,6.70
2023-05-15T19:03:23.981Z,12.25
2023-05-15T19:05:55.703Z,7.20
2023-05-15T19:08:26.860Z,9.60
2023-05-15T19:11:01.598Z,10.48
2023-05-15T19:13:34.860Z,8.82
2023-05-15T19:16:09.455Z,8.88
2023-05-15T19:18:41.998Z,10.77
2023-05-15T19:21:33.899Z,9.35
2023-05-15T19:24:08.013Z,6.38
2023-05-15T19:29:36.470Z,10.10
2023-05-15T19:32:15.811Z,9.10
2023-05-15T19:34:54.229Z,11.15
2023-05-15T19:37:27.849Z,8.25
2023-05-15T19:40:01.704Z,7.95
2023-05-15T19:42:36.156Z,6.50
2023-05-15T19:45:21.850Z,5.85
2023-05-15T19:47:59.532Z,5.07
2023-05-15T19:50:32.011Z,7.45
2023-05-15T19:53:04.552Z,6.50
2023-05-15T19:55:37.842Z,8.95
2023-05-15T19:58:10.780Z,7.50
2023-05-15T20:00:43.647Z,7.82
2023-05-15T20:03:17.562Z,5.10
2023-05-15T20:05:48.709Z,9.05
2023-05-15T20:08:19.898Z,7.50
2023-05-15T20:10:56.984Z,6.70
2023-05-15T20:16:16.004Z,20.35
2023-05-15T20:19:00.566Z,7.63
2023-05-15T20:21:45.545Z,7.93
2023-05-15T20:24:17.939Z,8.05
2023-05-15T20:26:57.433Z,8.35
2023-05-15T20:29:29.635Z,8.95
2023-05-15T20:32:04.547Z,9.10
2023-05-15T20:34:42.782Z,8.07
2023-05-15T20:37:14.433Z,6.78
2023-05-15T20:39:47.787Z,9.27
2023-05-15T20:42:18.699Z,8.52
2023-05-15T20:44:49.958Z,8.95
2023-05-15T20:47:21.583Z,14.55
2023-05-15T20:49:57.062Z,8.55
2023-05-15T20:52:27.989Z,7.75
2023-05-15T20:55:00.274Z,8.80
2023-05-15T20:57:35.337Z,10.18
2023-05-15T21:00:07.092Z,8.90
2023-05-15T21:02:40.581Z,7.75
2023-05-15T21:05:15.292Z,7.82
2023-05-15T21:07:47.169Z,8.65
2023-05-15T21:10:18.328Z,9.50
2023-05-15T21:12:50.187Z,9.68
2023-05-15T21:15:21.142Z,9.70
2023-05-15T21:17:52.971Z,7.80
2023-05-15T21:20:27.472Z,8.00
2023-05-15T21:22:59.745Z,7.97
2023-05-15T21:25:30.804Z,7.82
2023-05-15T21:28:01.846Z,9.43
2023-05-15T21:30:33.527Z,9.50
2023-05-15T21:33:04.483Z,8.32
2023-05-15T21:35:44.944Z,9.95
2023-05-15T21:38:27.990Z,8.15
2023-05-15T21:40:59.960Z,7.25
2023-05-15T21:43:31.102Z,8.20
2023-05-15T21:46:04.910Z,8.15
2023-05-15T21:48:35.864Z,7.07
2023-05-15T21:51:10.333Z,8.48
2023-05-15T21:53:42.704Z,10.20
2023-05-15T21:56:29.879Z,9.02
2023-05-15T21:59:01.125Z,7.97
2023-05-15T22:01:38.873Z,10.10
2023-05-15T22:04:09.612Z,6.35
2023-05-15T22:06:43.786Z,11.57
2023-05-15T22:09:14.504Z,9.77
2023-05-15T22:11:45.166Z,6.82
2023-05-15T22:14:15.964Z,9.32
2023-05-15T22:16:46.988Z,7.95
2023-05-15T22:19:31.531Z,14.20
2023-05-15T22:22:07.106Z,10.70
2023-05-15T22:24:37.811Z,11.80
2023-05-15T22:27:08.937Z,7.53
2023-05-15T22:29:39.690Z,9.10
2023-05-15T22:32:10.955Z,10.23
2023-05-15T22:34:41.752Z,6.85
2023-05-15T22:37:15.326Z,11.00
2023-05-15T22:39:46.221Z,10.15
2023-05-15T22:42:16.931Z,11.05
2023-05-15T22:44:47.615Z,9.55
2023-05-15T22:47:18.379Z,8.13
2023-05-15T22:49:49.149Z,5.63
2023-05-15T22:52:22.612Z,7.95
2023-05-15T22:54:53.577Z,8.60
2023-05-15T22:57:24.230Z,8.38
2023-05-15T22:59:55.390Z,10.02
2023-05-15T23:02:26.155Z,7.72
2023-05-15T23:04:56.827Z,9.30
2023-05-15T23:07:30.203Z,6.47
2023-05-15T23:10:01.080Z,9.45
2023-05-15T23:12:34.866Z,15.45
2023-05-15T23:15:05.633Z,6.78
2023-05-15T23:17:37.911Z,10.63
2023-05-15T23:20:10.704Z,8.90
2023-05-15T23:22:44.012Z,8.15
2023-05-15T23:25:14.646Z,10.05
2023-05-15T23:27:45.422Z,9.65
2023-05-15T23:30:16.978Z,10.90
2023-05-15T23:32:47.840Z,6.03
2023-05-15T23:35:18.627Z,11.05
2023-05-15T23:37:52.105Z,7.70
2023-05-15T23:40:22.802Z,10.30
2023-05-15T23:42:53.565Z,9.45
2023-05-15T23:45:24.242Z,9.20
2023-05-15T23:47:54.977Z,6.45
2023-05-15T23:50:25.898Z,8.65
2023-05-15T23:52:59.278Z,6.45
2023-05-15T23:55:30.200Z,6.45
2023-05-15T23:58:00.815Z,7.07
